Time;durP1;ratioP1;P1;durP2;ratioP2;P2;SDS_P1;SDS_P2;PMS_P1;PMS_P2;Temp;Humidity;BMP_temperature;BMP_pressure;BME280_temperature;BME280_humidity;BME280_pressure;Samples;Min_cycle;Max_cycle;Signal;HPM_P1;HPM_P2
2022/04/09 00:02:20;;;;;;;6.65;3.63;;;;;;;8.01;100.00;97513.88;5046920;28;20480;-42
2022/04/09 00:04:47;;;;;;;12.50;7.00;;;;;;;8.00;100.00;97509.66;5028476;28;20425;-43
2022/04/09 00:07:13;;;;;;;7.53;4.88;;;;;;;7.87;100.00;97508.69;5053631;28;20489;-42
2022/04/09 00:09:39;;;;;;;8.32;4.45;;;;;;;7.92;100.00;97519.59;5050984;28;20562;-41
2022/04/09 00:12:06;;;;;;;14.82;5.75;;;;;;;7.96;100.00;97530.59;5033341;28;20037;-43
2022/04/09 00:14:32;;;;;;;3.70;2.50;;;;;;;7.86;100.00;97519.13;5058450;28;20044;-40
2022/04/09 00:16:58;;;;;;;10.43;3.17;;;;;;;7.83;100.00;97527.91;5063913;28;20106;-41
2022/04/09 00:19:24;;;;;;;5.78;3.47;;;;;;;7.61;100.00;97520.53;5068878;28;20479;-42
2022/04/09 00:21:49;;;;;;;8.95;3.30;;;;;;;7.62;100.00;97542.88;5055908;28;20123;-40
2022/04/09 00:24:15;;;;;;;4.70;2.42;;;;;;;7.47;100.00;97528.25;5051613;28;20516;-40
2022/04/09 00:26:41;;;;;;;2.97;2.05;;;;;;;7.42;100.00;97532.00;5064498;28;20041;-41
2022/04/09 00:29:08;;;;;;;4.15;2.17;;;;;;;7.33;100.00;97538.50;5058813;28;20044;-40
2022/04/09 00:31:33;;;;;;;3.70;2.47;;;;;;;7.38;100.00;97557.16;5071204;28;20041;-40
2022/04/09 00:34:00;;;;;;;6.68;3.30;;;;;;;7.38;100.00;97570.09;5050250;28;20530;-42
2022/04/09 00:36:25;;;;;;;5.90;3.15;;;;;;;7.26;100.00;97563.03;5044815;28;20049;-43
2022/04/09 00:38:52;;;;;;;4.00;2.80;;;;;;;7.38;100.00;97577.84;5051413;28;20041;-41
2022/04/09 00:41:18;;;;;;;4.60;2.95;;;;;;;7.21;100.00;97558.13;5069790;28;20037;-41
2022/04/09 00:43:44;;;;;;;5.80;3.30;;;;;;;7.30;100.00;97577.44;5063268;28;20037;-40
2022/04/09 00:46:13;;;;;;;5.07;2.95;;;;;;;7.31;100.00;97573.13;5050834;28;20053;-41
2022/04/09 00:48:40;;;;;;;5.75;3.55;;;;;;;7.34;100.00;97583.28;5051918;28;20134;-42
2022/04/09 00:51:06;;;;;;;3.58;2.50;;;;;;;7.37;100.00;97578.78;5046519;28;20590;-41
2022/04/09 00:53:34;;;;;;;3.47;2.20;;;;;;;7.29;100.00;97582.69;5067805;28;20161;-42
2022/04/09 00:56:15;;;;;;;4.90;2.50;;;;;;;7.25;100.00;97571.72;5060498;28;20040;-42
2022/04/09 00:58:46;;;;;;;2.50;2.15;;;;;;;7.28;100.00;97568.09;5049975;28;20547;-42
2022/04/09 01:01:13;;;;;;;3.85;2.47;;;;;;;7.26;100.00;97572.53;5066297;28;20052;-43
2022/04/09 01:03:38;;;;;;;2.72;2.30;;;;;;;7.18;100.00;97581.53;5068801;28;20036;-41
2022/04/09 01:06:09;;;;;;;4.22;2.20;;;;;;;7.16;100.00;97575.63;5063438;28;20190;-41
2022/04/09 01:08:35;;;;;;;4.57;2.63;;;;;;;7.13;100.00;97580.94;5051780;28;20047;-43
2022/04/09 01:11:01;;;;;;;3.38;2.20;;;;;;;7.00;100.00;97567.03;5049385;28;20037;-42
2022/04/09 01:13:28;;;;;;;3.75;2.45;;;;;;;7.03;100.00;97587.53;5030422;28;20520;-41
2022/04/09 01:15:54;;;;;;;3.88;2.63;;;;;;;7.07;100.00;97593.34;5059889;28;20037;-40
2022/04/09 01:18:21;;;;;;;4.03;2.30;;;;;;;7.06;100.00;97602.03;5039550;28;20436;-41
2022/04/09 01:20:58;;;;;;;3.63;2.50;;;;;;;7.04;100.00;97604.69;5062214;28;20037;-41
2022/04/09 01:23:25;;;;;;;5.53;2.28;;;;;;;7.04;100.00;97617.63;5032401;28;20041;-42
2022/04/09 01:25:51;;;;;;;3.95;2.70;;;;;;;7.04;100.00;97621.94;5049165;28;20037;-43
2022/04/09 01:28:17;;;;;;;3.90;2.28;;;;;;;7.09;100.00;97620.78;5039501;28;20048;-42
2022/04/09 01:30:44;;;;;;;3.95;2.42;;;;;;;7.00;100.00;97631.63;5050207;28;20048;-42
2022/04/09 01:33:20;;;;;;;4.28;2.22;;;;;;;7.06;100.00;97622.72;5050070;28;20110;-43
2022/04/09 01:35:46;;;;;;;2.67;1.75;;;;;;;7.01;100.00;97619.53;5031494;28;20055;-43
2022/04/09 01:38:13;;;;;;;3.30;2.05;;;;;;;7.03;100.00;97631.44;5029882;28;20052;-41
2022/04/09 01:40:39;;;;;;;2.63;2.20;;;;;;;6.99;100.00;97636.84;5065563;28;20049;-40
2022/04/09 01:43:06;;;;;;;3.17;2.35;;;;;;;7.03;100.00;97644.38;5050785;28;20064;-41
2022/04/09 01:45:33;;;;;;;4.22;1.63;;;;;;;6.98;100.00;97640.34;5042545;28;20037;-42
2022/04/09 01:48:03;;;;;;;1.88;1.73;;;;;;;6.95;100.00;97651.69;5048820;28;20041;-42
2022/04/09 01:50:30;;;;;;;2.67;1.92;;;;;;;6.94;100.00;97654.34;5064376;28;20048;-43
2022/04/09 01:52:56;;;;;;;3.03;2.30;;;;;;;6.89;100.00;97646.00;5030764;28;20110;-43
2022/04/09 01:55:22;;;;;;;3.47;2.00;;;;;;;6.94;100.00;97677.59;5057153;28;20136;-43
2022/04/09 01:57:49;;;;;;;2.83;2.10;;;;;;;6.92;100.00;97676.81;5077017;28;20068;-42
2022/04/09 02:00:17;;;;;;;2.92;2.28;;;;;;;6.94;100.00;97681.00;5047363;28;20055;-42
2022/04/09 02:02:47;;;;;;;2.92;1.85;;;;;;;6.99;100.00;97691.09;5046890;28;20045;-42
2022/04/09 02:05:14;;;;;;;2.65;1.38;;;;;;;6.88;100.00;97672.75;5060661;28;20399;-40
2022/04/09 02:07:42;;;;;;;3.83;2.33;;;;;;;6.97;100.00;97677.41;5047378;28;20045;-42
2022/04/09 02:10:09;;;;;;;2.10;1.67;;;;;;;7.01;100.00;97702.22;5051732;28;20047;-42
2022/04/09 02:12:38;;;;;;;2.47;1.85;;;;;;;7.02;100.00;97709.84;5050648;28;20094;-41
2022/04/09 02:15:09;;;;;;;2.10;1.80;;;;;;;6.96;100.00;97704.19;5066668;28;20072;-41
2022/04/09 02:17:39;;;;;;;3.58;2.03;;;;;;;6.97;100.00;97727.34;5062146;28;20123;-41
2022/04/09 02:20:06;;;;;;;2.88;1.83;;;;;;;6.94;100.00;97714.59;5053149;28;20114;-42
2022/04/09 02:22:39;;;;;;;6.72;2.40;;;;;;;7.03;100.00;97726.19;5054069;28;20513;-42
2022/04/09 02:25:07;;;;;;;3.55;2.03;;;;;;;7.07;100.00;97720.78;5081174;28;20056;-43
2022/04/09 02:27:34;;;;;;;2.78;1.52;;;;;;;7.10;100.00;97733.56;5050347;28;20714;-42
2022/04/09 02:30:06;;;;;;;3.50;2.08;;;;;;;7.01;100.00;97740.94;5047497;28;20049;-41
2022/04/09 02:32:51;;;;;;;1.98;1.67;;;;;;;6.98;100.00;97743.69;5047704;28;20124;-41
2022/04/09 02:35:22;;;;;;;2.72;2.33;;;;;;;7.02;100.00;97729.69;5064405;28;20052;-41
2022/04/09 02:37:49;;;;;;;3.00;2.30;;;;;;;7.06;100.00;97744.97;5052239;28;20037;-43
2022/04/09 02:40:15;;;;;;;4.20;1.83;;;;;;;7.13;100.00;97741.16;5063805;28;20048;-42
2022/04/09 02:42:42;;;;;;;3.58;2.40;;;;;;;6.95;100.00;97723.19;5063500;28;20143;-42
2022/04/09 02:45:09;;;;;;;4.55;2.25;;;;;;;7.01;100.00;97728.88;5049062;28;20071;-41
2022/04/09 02:47:37;;;;;;;2.63;2.00;;;;;;;7.17;100.00;97750.41;5030518;28;20429;-42
2022/04/09 02:50:06;;;;;;;3.33;2.67;;;;;;;7.13;100.00;97761.81;5038177;28;20110;-41
2022/04/09 02:52:37;;;;;;;3.38;2.55;;;;;;;7.15;100.00;97767.75;5054005;28;20032;-41
2022/04/09 02:55:05;;;;;;;4.28;2.30;;;;;;;7.11;100.00;97776.56;5048478;28;20425;-42
2022/04/09 02:57:33;;;;;;;4.43;2.53;;;;;;;7.13;100.00;97771.31;5046019;28;20045;-42
2022/04/09 02:59:59;;;;;;;3.00;2.55;;;;;;;7.20;100.00;97781.28;5045397;28;20057;-41
2022/04/09 03:02:25;;;;;;;3.45;2.60;;;;;;;7.17;100.00;97780.59;5049139;28;20074;-42
2022/04/09 03:04:53;;;;;;;3.17;2.55;;;;;;;7.23;100.00;97773.34;5041637;28;20114;-41
2022/04/09 03:07:21;;;;;;;2.58;1.95;;;;;;;7.26;97.34;97781.88;5048445;28;20456;-41
2022/04/09 03:09:48;;;;;;;3.05;2.65;;;;;;;7.27;100.00;97788.72;5047591;28;20036;-41
2022/04/09 03:12:13;;;;;;;5.32;3.10;;;;;;;7.32;100.00;97784.97;5047069;28;20101;-40
2022/04/09 03:14:39;;;;;;;3.83;2.90;;;;;;;7.21;100.00;97767.44;5048389;28;20512;-41
2022/04/09 03:17:05;;;;;;;4.30;2.80;;;;;;;7.29;100.00;97784.28;5047084;28;20045;-43
2022/04/09 03:19:31;;;;;;;3.80;2.67;;;;;;;7.25;100.00;97786.19;5047241;28;20067;-41
2022/04/09 03:21:58;;;;;;;4.43;3.03;;;;;;;7.27;100.00;97781.78;5046754;28;20052;-42
2022/04/09 03:24:25;;;;;;;3.08;2.13;;;;;;;7.30;100.00;97780.78;5059253;28;20532;-40
2022/04/09 03:26:51;;;;;;;3.05;2.50;;;;;;;7.25;100.00;97799.13;5061851;28;20045;-42
2022/04/09 03:29:16;;;;;;;4.93;2.90;;;;;;;7.21;100.00;97803.63;5049308;28;20060;-40
2022/04/09 03:31:44;;;;;;;3.83;2.33;;;;;;;7.18;98.32;97808.09;5046887;28;20041;-39
2022/04/09 03:34:13;;;;;;;2.63;1.85;;;;;;;7.16;96.66;97807.34;5031398;28;20051;-41
2022/04/09 03:36:39;;;;;;;3.97;2.30;;;;;;;7.02;96.19;97808.03;5059940;28;20041;-40
2022/04/09 03:39:06;;;;;;;3.88;2.60;;;;;;;7.11;100.00;97820.50;5049958;28;20582;-41
2022/04/09 03:41:32;;;;;;;2.10;1.70;;;;;;;7.11;95.34;97832.59;5045823;28;20037;-41
2022/04/09 03:44:04;;;;;;;3.45;2.30;;;;;;;6.98;94.58;97829.75;5068190;28;20043;-41
2022/04/09 03:46:34;;;;;;;3.22;2.03;;;;;;;6.95;91.59;97829.94;5057816;28;20095;-41
2022/04/09 03:49:05;;;;;;;3.45;2.17;;;;;;;6.94;92.27;97832.56;5067247;28;20048;-41
2022/04/09 03:51:34;;;;;;;3.33;2.13;;;;;;;6.97;90.66;97838.41;5060638;28;20048;-40
2022/04/09 03:54:00;;;;;;;4.95;2.92;;;;;;;6.91;91.96;97846.47;5052514;28;20041;-39
2022/04/09 03:56:27;;;;;;;3.80;2.63;;;;;;;7.04;95.22;97852.72;5026106;28;20037;-40
2022/04/09 03:58:53;;;;;;;2.80;2.28;;;;;;;7.14;97.26;97858.25;5055156;28;20060;-41
2022/04/09 04:01:24;;;;;;;3.35;3.05;;;;;;;7.12;98.04;97871.25;5065257;28;20048;-40
2022/04/09 04:03:51;;;;;;;4.97;2.35;;;;;;;7.21;100.00;97881.16;5053057;28;20044;-41
2022/04/09 04:06:18;;;;;;;3.42;2.80;;;;;;;7.28;100.00;97883.41;5045747;28;20032;-40
2022/04/09 04:08:44;;;;;;;4.70;2.35;;;;;;;7.20;93.79;97879.47;5071301;28;20508;-41
2022/04/09 04:11:15;;;;;;;5.70;2.72;;;;;;;7.16;93.96;97892.63;5064468;28;20043;-42
2022/04/09 04:13:41;;;;;;;4.97;3.08;;;;;;;7.17;99.31;97896.88;5051589;28;20432;-40
2022/04/09 04:16:11;;;;;;;4.53;3.10;;;;;;;7.18;100.00;97901.09;5066795;28;20047;-41
2022/04/09 04:18:41;;;;;;;4.72;2.90;;;;;;;7.22;99.20;97903.47;5070171;28;20044;-40
2022/04/09 04:21:08;;;;;;;6.78;3.33;;;;;;;7.18;98.14;97894.19;5054037;28;20044;-40
2022/04/09 04:23:34;;;;;;;3.95;2.67;;;;;;;7.22;95.97;97902.66;5070062;28;20527;-40
2022/04/09 04:26:08;;;;;;;4.63;3.15;;;;;;;7.30;100.00;97903.09;5053021;28;20426;-41
2022/04/09 04:28:35;;;;;;;6.32;3.35;;;;;;;7.51;100.00;97906.38;5056046;28;20090;-41
2022/04/09 04:31:01;;;;;;;3.40;2.80;;;;;;;7.66;100.00;97916.75;5060160;28;20049;-41
2022/04/09 04:33:26;;;;;;;4.13;3.00;;;;;;;7.64;100.00;97890.13;5033428;28;20817;-40
2022/04/09 04:35:56;;;;;;;4.22;2.95;;;;;;;7.68;100.00;97892.59;5060105;28;20045;-40
2022/04/09 04:38:27;;;;;;;;;;;;;;;7.72;96.36;97919.94;5031304;28;20041;-40
2022/04/09 04:40:55;;;;;;;3.80;3.10;;;;;;;7.63;95.88;97924.69;5031037;28;19917;-40
2022/04/09 04:43:22;;;;;;;4.00;3.10;;;;;;;7.52;96.20;97926.13;5065672;28;20340;-41
2022/04/09 04:45:48;;;;;;;4.85;3.13;;;;;;;7.47;96.76;97938.47;5021038;28;20056;-39
2022/04/09 04:48:15;;;;;;;10.68;3.67;;;;;;;7.45;98.01;97929.94;5049471;28;20128;-41
2022/04/09 04:50:41;;;;;;;4.75;2.50;;;;;;;7.47;96.46;97938.47;5060012;28;20076;-41
2022/04/09 04:53:11;;;;;;;4.72;3.30;;;;;;;7.50;97.34;97939.13;5059645;28;20041;-41
2022/04/09 04:55:43;;;;;;;4.93;2.90;;;;;;;7.47;97.65;97921.19;5033881;28;20047;-41
2022/04/09 04:58:10;;;;;;;4.70;3.13;;;;;;;7.54;95.31;97942.41;5034559;28;20053;-41
2022/04/09 05:00:43;;;;;;;3.65;3.03;;;;;;;7.54;95.49;97953.56;5063972;28;20048;-42
2022/04/09 05:03:15;;;;;;;4.28;2.90;;;;;;;7.40;88.72;97958.59;5039566;28;20836;-42
2022/04/09 05:05:52;;;;;;;4.63;2.42;;;;;;;7.39;92.02;97950.91;5056561;28;20091;-40
2022/04/09 05:08:18;;;;;;;3.60;3.00;;;;;;;7.34;95.97;97947.72;5034461;28;20036;-43
2022/04/09 05:10:44;;;;;;;3.55;3.00;;;;;;;7.50;96.24;97967.56;5058471;28;20105;-45
2022/04/09 05:13:11;;;;;;;5.53;3.30;;;;;;;7.58;90.63;97980.13;5049844;28;20048;-43
2022/04/09 05:15:38;;;;;;;4.25;2.88;;;;;;;7.58;90.91;97983.56;5034843;28;20037;-44
2022/04/09 05:18:04;;;;;;;4.97;3.53;;;;;;;7.45;93.39;97959.22;5061153;28;20041;-44
2022/04/09 05:20:31;;;;;;;5.78;3.05;;;;;;;7.61;91.33;98003.25;5056865;28;20044;-46
2022/04/09 05:23:02;;;;;;;5.53;2.95;;;;;;;7.64;96.70;98000.53;5049203;28;20049;-45
2022/04/09 05:25:31;;;;;;;5.50;3.25;;;;;;;7.51;89.63;97995.09;5067898;28;20041;-47
2022/04/09 05:28:02;;;;;;;5.25;3.30;;;;;;;7.51;96.87;98010.63;5068985;28;20044;-48
2022/04/09 05:30:34;;;;;;;4.32;3.25;;;;;;;7.59;97.04;98015.41;5053272;28;20535;-48
2022/04/09 05:33:01;;;;;;;6.65;3.35;;;;;;;7.56;90.62;98019.00;5038407;28;20040;-45
2022/04/09 05:35:26;;;;;;;4.75;3.35;;;;;;;7.60;93.63;98022.25;5049399;28;20505;-45
2022/04/09 05:37:54;;;;;;;4.55;2.55;;;;;;;7.61;90.04;98023.94;5060103;28;20043;-46
2022/04/09 05:40:24;;;;;;;4.53;2.67;;;;;;;7.58;92.78;98026.69;5048885;28;20136;-45
2022/04/09 05:42:52;;;;;;;4.35;2.53;;;;;;;7.61;89.50;98054.97;5056079;28;20045;-45
2022/04/09 05:45:18;;;;;;;3.65;2.58;;;;;;;7.54;93.91;98035.47;5068987;28;20143;-43
2022/04/09 05:47:46;;;;;;;5.00;2.40;;;;;;;7.65;88.90;98053.91;5061217;28;20045;-44
2022/04/09 05:50:17;;;;;;;3.67;2.42;;;;;;;7.64;88.82;98055.66;5032789;28;20048;-45
2022/04/09 05:52:43;;;;;;;4.85;2.90;;;;;;;7.66;89.20;98060.75;5048291;28;20504;-46
2022/04/09 05:55:11;;;;;;;4.25;3.25;;;;;;;7.76;94.41;98071.47;5048314;28;20037;-46
2022/04/09 05:57:39;;;;;;;3.28;2.47;;;;;;;7.75;88.05;98069.81;5033410;28;20068;-40
2022/04/09 06:00:08;;;;;;;3.80;3.28;;;;;;;7.81;90.68;98085.88;5043320;28;20106;-41
2022/04/09 06:02:41;;;;;;;5.35;3.03;;;;;;;7.96;92.38;98110.16;5047105;28;20040;-42
2022/04/09 06:05:16;;;;;;;4.93;2.70;;;;;;;7.90;87.77;98100.13;5047543;28;20037;-42
2022/04/09 06:07:46;;;;;;;4.22;3.15;;;;;;;7.88;88.80;98114.88;5030833;28;20060;-42
2022/04/09 06:10:14;;;;;;;4.22;2.92;;;;;;;7.76;85.75;98110.28;5047394;28;20068;-44
2022/04/09 06:12:40;;;;;;;5.85;3.80;;;;;;;7.88;90.53;98131.25;5079087;28;20042;-44
2022/04/09 06:15:13;;;;;;;4.10;2.90;;;;;;;7.88;84.71;98136.41;5080890;28;20048;-43
2022/04/09 06:17:42;;;;;;;5.38;3.45;;;;;;;7.82;87.56;98126.34;5075982;28;20083;-43
2022/04/09 06:20:09;;;;;;;4.68;2.60;;;;;;;7.69;84.74;98114.94;5047762;28;20084;-44
2022/04/09 06:22:38;;;;;;;4.28;3.13;;;;;;;7.77;87.03;98117.97;5076686;28;20472;-43
2022/04/09 06:25:04;;;;;;;5.85;3.65;;;;;;;7.88;89.94;98123.47;5050087;28;20044;-43
2022/04/09 06:27:35;;;;;;;5.30;2.25;;;;;;;7.89;84.42;98134.66;5046839;28;20091;-42
2022/04/09 06:30:06;;;;;;;5.03;3.20;;;;;;;7.89;86.10;98143.28;5042766;28;20037;-43
2022/04/09 06:32:33;;;;;;;6.65;3.65;;;;;;;7.92;88.92;98134.50;5028403;28;20040;-43
2022/04/09 06:34:59;;;;;;;5.63;3.00;;;;;;;7.94;83.16;98125.78;5064215;28;20045;-41
2022/04/09 06:37:26;;;;;;;3.35;2.38;;;;;;;7.94;82.25;98125.78;5065837;28;20044;-42
2022/04/09 06:39:52;;;;;;;6.28;2.90;;;;;;;7.92;87.13;98117.25;5027209;28;20091;-44
2022/04/09 06:42:19;;;;;;;4.20;2.95;;;;;;;8.00;82.20;98130.66;5043831;28;20458;-45
2022/04/09 06:45:17;;;;;;;4.65;3.10;;;;;;;8.10;84.80;98133.63;5043515;28;20504;-44
2022/04/09 06:48:02;;;;;;;6.43;3.25;;;;;;;8.15;80.77;98136.81;5047174;28;20037;-43
2022/04/09 06:50:35;;;;;;;6.63;3.35;;;;;;;8.17;81.89;98139.31;5062639;28;20628;-42
2022/04/09 06:53:01;;;;;;;4.57;3.50;;;;;;;8.30;83.15;98145.59;5047473;28;20120;-44
2022/04/09 06:55:29;;;;;;;6.13;3.50;;;;;;;8.38;86.51;98159.00;5047141;28;20155;-47
2022/04/09 06:58:01;;;;;;;6.88;3.00;;;;;;;8.42;78.88;98168.31;5078366;28;20124;-45
2022/04/09 07:00:30;;;;;;;4.97;3.08;;;;;;;8.37;78.97;98170.28;5046942;28;20041;-47
2022/04/09 07:02:55;;;;;;;3.30;1.90;;;;;;;8.27;78.32;98182.78;5048152;28;20052;-43
2022/04/09 07:05:22;;;;;;;4.05;3.35;;;;;;;8.27;81.16;98180.22;5047519;28;20411;-42
2022/04/09 07:07:48;;;;;;;5.70;3.33;;;;;;;8.40;79.76;98189.09;5048045;28;20335;-43
2022/04/09 07:10:15;;;;;;;4.50;3.15;;;;;;;8.45;78.97;98197.47;5046812;28;20424;-43
2022/04/09 07:12:41;;;;;;;4.95;3.20;;;;;;;8.43;79.67;98198.44;5048549;28;20557;-44
2022/04/09 07:15:07;;;;;;;6.00;3.78;;;;;;;8.36;79.75;98197.94;5050561;28;20048;-44
2022/04/09 07:17:33;;;;;;;6.75;3.72;;;;;;;8.54;80.82;98216.03;5041219;28;20037;-41
2022/04/09 07:20:01;;;;;;;4.30;3.78;;;;;;;8.65;84.38;98218.94;5046649;28;20044;-43
2022/04/09 07:22:27;;;;;;;6.90;4.30;;;;;;;8.79;84.84;98214.75;5047654;28;20052;-42
2022/04/09 07:24:53;;;;;;;4.75;2.97;;;;;;;8.74;77.44;98219.31;5046287;28;20048;-41
2022/04/09 07:27:20;;;;;;;10.23;5.18;;;;;;;8.54;77.03;98222.06;5047470;28;20807;-42
2022/04/09 07:29:46;;;;;;;9.02;4.68;;;;;;;8.60;83.63;98226.94;5047769;28;20137;-45
2022/04/09 07:32:12;;;;;;;6.32;4.10;;;;;;;8.52;78.99;98233.44;5046040;28;20496;-44
2022/04/09 07:34:38;;;;;;;7.88;4.82;;;;;;;8.66;85.12;98249.13;5047451;28;20064;-43
2022/04/09 07:37:04;;;;;;;5.82;4.28;;;;;;;8.76;80.95;98251.19;5047646;28;20044;-44
2022/04/09 07:39:29;;;;;;;6.55;3.97;;;;;;;8.62;79.28;98243.25;5047105;28;20040;-43
2022/04/09 07:41:55;;;;;;;8.05;3.95;;;;;;;8.68;76.75;98276.66;5047256;28;20107;-42
2022/04/09 07:44:22;;;;;;;5.53;3.58;;;;;;;8.51;77.10;98268.84;5047311;28;20086;-43
2022/04/09 07:46:49;;;;;;;7.43;4.10;;;;;;;8.47;78.32;98288.88;5042857;28;20047;-41
2022/04/09 07:49:15;;;;;;;5.97;3.28;;;;;;;8.45;77.18;98285.53;5044086;28;20182;-46
2022/04/09 07:51:40;;;;;;;6.72;3.75;;;;;;;8.37;77.36;98292.81;5044528;28;20059;-44
2022/04/09 07:54:06;;;;;;;5.80;3.88;;;;;;;8.39;77.87;98279.78;5045194;28;20646;-45
2022/04/09 07:56:32;;;;;;;6.40;3.88;;;;;;;8.44;82.64;98290.75;5046366;28;20059;-43
2022/04/09 07:58:57;;;;;;;8.68;4.20;;;;;;;8.55;82.92;98300.59;5043016;28;20056;-43
2022/04/09 08:01:23;;;;;;;4.63;3.35;;;;;;;8.58;77.28;98305.66;5045022;28;20064;-47
2022/04/09 08:03:49;;;;;;;3.97;3.00;;;;;;;8.42;76.63;98279.66;5046444;28;20045;-48
2022/04/09 08:06:15;;;;;;;5.45;3.75;;;;;;;8.48;78.31;98287.09;5046403;28;20128;-47
2022/04/09 08:08:41;;;;;;;4.70;3.22;;;;;;;8.52;77.94;98298.19;5045538;28;20091;-44
2022/04/09 08:11:07;;;;;;;4.70;3.47;;;;;;;8.58;77.96;98301.31;5043874;28;20468;-42
2022/04/09 08:13:33;;;;;;;5.30;3.33;;;;;;;8.58;77.39;98297.91;5044128;28;20452;-44
2022/04/09 08:15:59;;;;;;;5.43;3.97;;;;;;;8.71;83.51;98283.41;5046503;28;20136;-43
2022/04/09 08:18:25;;;;;;;5.55;3.65;;;;;;;8.95;74.60;98305.50;5046264;28;20140;-45
2022/04/09 08:20:52;;;;;;;4.28;3.42;;;;;;;8.89;74.40;98287.69;5046761;28;20036;-45
2022/04/09 08:23:17;;;;;;;5.30;3.17;;;;;;;8.95;72.78;98308.09;5045941;28;20428;-49
2022/04/09 08:25:43;;;;;;;4.90;3.95;;;;;;;9.07;75.50;98311.84;5046482;28;20045;-42
2022/04/09 08:28:09;;;;;;;5.88;3.25;;;;;;;9.00;73.48;98321.69;5047625;28;20475;-44
2022/04/09 08:30:36;;;;;;;5.07;3.28;;;;;;;8.91;72.63;98316.94;5049966;28;20098;-42
2022/04/09 08:33:05;;;;;;;8.45;3.90;;;;;;;9.03;76.07;98325.88;5049535;28;20036;-41
2022/04/09 08:35:31;;;;;;;5.20;3.10;;;;;;;9.08;74.33;98319.56;5043249;28;20041;-42
2022/04/09 08:37:58;;;;;;;5.28;3.90;;;;;;;9.28;76.01;98327.16;5048439;28;20424;-43
2022/04/09 08:40:25;;;;;;;5.03;3.67;;;;;;;9.55;75.88;98319.72;5050011;28;20122;-44
2022/04/09 08:42:50;;;;;;;4.55;3.55;;;;;;;9.69;68.93;98304.25;5048664;28;20037;-43
2022/04/09 08:45:17;;;;;;;4.85;3.15;;;;;;;9.84;67.91;98333.75;5049888;28;20040;-42
2022/04/09 08:47:43;;;;;;;5.72;3.50;;;;;;;10.13;68.80;98329.63;5054196;28;20135;-50
2022/04/09 08:50:13;;;;;;;4.78;3.60;;;;;;;10.34;68.82;98319.84;5044231;28;20119;-43
2022/04/09 08:52:40;;;;;;;5.22;3.88;;;;;;;10.46;72.67;98317.41;5048865;28;20569;-46
2022/04/09 08:55:07;;;;;;;5.75;3.15;;;;;;;10.50;68.81;98331.91;5047426;28;20052;-47
2022/04/09 08:57:35;;;;;;;6.60;3.60;;;;;;;10.56;69.74;98330.72;5044080;28;20044;-49
2022/04/09 09:00:10;;;;;;;5.55;2.67;;;;;;;10.28;65.43;98341.78;5076258;28;20525;-42
2022/04/09 09:02:37;;;;;;;5.72;3.42;;;;;;;10.14;70.52;98341.69;5049340;28;20056;-50
2022/04/09 09:05:04;;;;;;;5.38;3.58;;;;;;;10.28;70.23;98343.56;5050088;28;20098;-47
2022/04/09 09:07:29;;;;;;;6.05;2.80;;;;;;;10.32;68.19;98335.50;5049258;28;20047;-47
2022/04/09 09:10:16;;;;;;;5.05;3.60;;;;;;;10.07;67.56;98350.72;5032313;28;20124;-48
2022/04/09 09:12:42;;;;;;;4.78;3.08;;;;;;;10.45;71.36;98346.06;5049094;28;20512;-44
2022/04/09 09:15:08;;;;;;;6.05;3.53;;;;;;;11.03;64.75;98344.47;5057444;28;20051;-46
2022/04/09 09:17:34;;;;;;;6.30;3.95;;;;;;;11.34;69.22;98340.09;5068855;28;20058;-46
2022/04/09 09:20:00;;;;;;;6.50;3.75;;;;;;;11.96;65.73;98325.91;5059793;28;20044;-48
2022/04/09 09:22:39;;;;;;;7.70;3.50;;;;;;;13.30;61.59;98338.97;5063356;28;20086;-47
2022/04/09 09:25:07;;;;;;;4.45;3.58;;;;;;;13.45;65.61;98340.56;5050294;28;20044;-46
2022/04/09 09:27:33;;;;;;;3.65;2.88;;;;;;;13.30;59.56;98348.59;5042733;28;20048;-50
2022/04/09 09:29:58;;;;;;;4.60;4.03;;;;;;;12.61;63.66;98347.84;5047943;28;20045;-50
2022/04/09 09:32:26;;;;;;;6.22;3.95;;;;;;;12.29;65.78;98354.25;5046892;28;20037;-49
2022/04/09 09:34:55;;;;;;;5.72;4.00;;;;;;;12.08;64.20;98348.63;5040157;28;20127;-53
2022/04/09 09:37:24;;;;;;;6.90;4.13;;;;;;;13.62;63.38;98354.25;5047718;28;20043;-48
2022/04/09 09:39:50;;;;;;;5.05;4.30;;;;;;;14.38;62.02;98365.50;5042561;28;20088;-51
2022/04/09 09:42:20;;;;;;;6.57;3.95;;;;;;;14.53;58.76;98355.75;5044160;28;20049;-49
2022/04/09 09:44:46;;;;;;;5.55;3.95;;;;;;;14.51;64.75;98353.22;5058245;28;20076;-47
2022/04/09 09:47:15;;;;;;;6.35;3.50;;;;;;;14.55;57.77;98338.97;5036311;28;20064;-48
2022/04/09 09:49:53;;;;;;;5.35;3.83;;;;;;;14.31;61.16;98333.69;5077030;28;20040;-51
2022/04/09 09:52:24;;;;;;;7.65;4.10;;;;;;;16.16;55.35;98341.69;5044038;28;20071;-52
2022/04/09 09:55:06;;;;;;;5.45;4.35;;;;;;;17.19;54.57;98344.66;5053590;28;20048;-48
2022/04/09 09:57:33;;;;;;;4.15;3.65;;;;;;;19.17;45.29;98337.97;5050859;28;20051;-52
2022/04/09 10:00:01;;;;;;;3.88;3.47;;;;;;;19.76;42.44;98333.34;5047521;28;20053;-50
2022/04/09 10:02:33;;;;;;;5.43;3.25;;;;;;;18.90;51.24;98342.13;5038787;28;20037;-47
2022/04/09 10:04:59;;;;;;;5.13;3.58;;;;;;;18.94;57.66;98325.09;5032989;28;20059;-48
2022/04/09 10:07:25;;;;;;;5.57;3.60;;;;;;;21.29;44.20;98338.75;5048177;28;20052;-44
2022/04/09 10:09:53;;;;;;;4.25;2.88;;;;;;;21.01;43.35;98334.50;5042672;28;20102;-46
2022/04/09 10:12:28;;;;;;;5.63;3.10;;;;;;;19.27;48.65;98336.16;5039873;28;20037;-46
2022/04/09 10:14:57;;;;;;;2.90;2.47;;;;;;;18.72;51.96;98335.03;5049037;28;20467;-44
2022/04/09 10:17:24;;;;;;;4.47;3.10;;;;;;;18.19;52.51;98325.59;5049080;28;20056;-45
2022/04/09 10:19:58;;;;;;;4.70;3.40;;;;;;;20.66;49.31;98333.50;5052546;28;20450;-48
2022/04/09 10:22:30;;;;;;;3.58;2.90;;;;;;;21.94;42.11;98337.41;5052445;28;20045;-44
2022/04/09 10:24:57;;;;;;;3.83;3.08;;;;;;;21.52;49.37;98334.63;5048095;28;20041;-45
2022/04/09 10:27:38;;;;;;;4.30;2.95;;;;;;;20.82;49.99;98332.00;5030880;28;20068;-45
2022/04/09 10:30:17;;;;;;;3.90;3.42;;;;;;;19.76;50.72;98325.44;5058320;28;20043;-47
2022/04/09 10:32:46;;;;;;;4.80;3.70;;;;;;;18.97;51.73;98342.41;5052986;28;20059;-48
2022/04/09 10:35:40;;;;;;;4.85;3.70;;;;;;;19.26;50.71;98335.31;5034042;28;20040;-48
2022/04/09 10:38:14;;;;;;;3.50;3.20;;;;;;;19.08;52.75;98336.16;5031415;28;20083;-45
2022/04/09 10:40:43;;;;;;;4.18;3.42;;;;;;;19.03;53.43;98333.97;5048990;28;20539;-47
2022/04/09 10:43:10;;;;;;;5.00;3.67;;;;;;;18.51;54.02;98325.41;5046829;28;20071;-45
2022/04/09 10:46:00;;;;;;;4.60;3.88;;;;;;;18.63;53.99;98330.59;5055541;28;20500;-41
2022/04/09 10:48:30;;;;;;;5.43;4.05;;;;;;;18.52;53.26;98331.53;5038321;28;20537;-41
2022/04/09 10:51:07;;;;;;;5.30;4.30;;;;;;;20.45;55.34;98334.75;5053678;28;20041;-43
2022/04/09 10:53:33;;;;;;;5.50;3.60;;;;;;;22.45;45.73;98325.06;5047599;28;20041;-46
2022/04/09 10:56:21;;;;;;;4.15;3.60;;;;;;;23.44;47.06;98331.19;5053632;28;20044;-39
2022/04/09 10:59:16;;;;;;;4.85;3.30;;;;;;;24.29;43.74;98339.50;5046876;28;20551;-38
2022/04/09 11:01:48;;;;;;;5.32;3.50;;;;;;;25.16;44.76;98330.41;5076983;28;20045;-41
2022/04/09 11:04:27;;;;;;;3.65;3.35;;;;;;;25.88;41.39;98346.75;5052493;28;20385;-39
2022/04/09 11:07:06;;;;;;;4.05;3.67;;;;;;;25.95;40.09;98347.69;5054750;28;20040;-40
2022/04/09 11:09:58;;;;;;;4.05;3.50;;;;;;;25.94;35.29;98344.22;5060026;28;20099;-40
2022/04/09 11:12:43;;;;;;;5.50;3.63;;;;;;;25.26;36.27;98339.81;5050932;28;20807;-41
2022/04/09 11:15:16;;;;;;;4.35;3.70;;;;;;;25.70;37.43;98350.59;5056751;28;20106;-40
2022/04/09 11:17:47;;;;;;;6.25;3.80;;;;;;;26.28;33.19;98351.66;5045073;28;20569;-40
2022/04/09 11:20:15;;;;;;;4.03;3.63;;;;;;;26.51;34.09;98346.22;5059921;28;20059;-41
2022/04/09 11:22:45;;;;;;;4.78;3.40;;;;;;;27.01;34.60;98347.25;5045359;28;20191;-41
2022/04/09 11:25:19;;;;;;;4.50;3.72;;;;;;;27.14;29.71;98344.72;5045320;28;20143;-39
2022/04/09 11:27:45;;;;;;;4.82;3.42;;;;;;;26.72;30.39;98324.13;5046529;28;20085;-39
2022/04/09 11:30:11;;;;;;;4.68;3.70;;;;;;;27.55;30.11;98328.88;5045096;28;20044;-39
2022/04/09 11:32:37;;;;;;;5.40;3.95;;;;;;;28.25;26.80;98339.47;5045254;28;20041;-41
2022/04/09 11:35:24;;;;;;;4.22;3.33;;;;;;;28.01;24.08;98338.03;5047158;28;20033;-40
2022/04/09 11:37:51;;;;;;;5.55;3.80;;;;;;;27.68;23.42;98342.34;5047833;28;20070;-40
2022/04/09 11:40:21;;;;;;;4.72;3.88;;;;;;;27.50;22.90;98337.47;5030206;28;20437;-39
2022/04/09 11:42:50;;;;;;;6.75;4.13;;;;;;;28.22;22.39;98343.34;5047855;28;20072;-41
2022/04/09 11:45:19;;;;;;;4.57;4.20;;;;;;;28.70;22.00;98334.50;5048297;28;20094;-40